Skip Navigation Links Skip Navigation Links

Current Weather

Kuwait International Airport, Kuwait

For information only: do not use for flight planning or navigation.
Latest weather
Observation time Sunday, May 31, 2020 3:59 PM +03
Local time Sunday, May 31, 2020 4:49 PM +03
Flight conditions Visual Meteorological Conditions
Winds
Wind direction North (10°)
Wind speed 18 mph
Visibility 6.2 mi.
Sky condition
Ceiling unlimited
Sky clear
Temperature 111°F
Dewpoint 43°F
Altimeter 29.68 in.Hg
Derived measurements
Relative humidity 10%
Heat index 111°F
Density altitude 3646 ft.
Remarks
Ceiling and visibility OK.
No significant changes expected in the next two hours.
METAR OKBK 311259Z 01016KT CAVOK 44/06 Q1005 NOSIG

Settings

Location code

InnerDrive.Weather 4.0.6770.0 Release CLR 4.0.30319.42000
Copyright ©2018 Inner Drive Technology. All rights reserved. Portions Copyright ©1986-2018 David Braverman.

Find weather

Site navigation


Skip Navigation Links

Place info

Page info

PayPal - The safer, easier way to pay online!

Return home.

Copyright ©2020 Inner Drive Technology. Purveyors of fine, hand-crafted computer software. Page printed 2020-05-31T13:49:00 UTC.